Lopburi, Thailand
Current Conditions -  °F | °C
As of 3:00 AM on Monday 26 Jan 2015 (Local Time) from VTBD Reporting Station
Clear Clear  
Wind Chill: 75°   Ceiling: Unl
Heat Index: 75°   Visibility: 4mi
Dew Point: 73°   Wind: 3mph
Humidity: 94%   Direction: 190°S
Pressure: 29.91"   Gusts: NA
Location:  14.8°N, 100.62°E
Report Text: VTBD 252000Z 19003KT 6000 NSC 24/23 Q1013 NOSIG
Loading
Personal Weather Stations






























Interactive Weather Map New forecast layout! Learn more

10-Day Weather Forecast

Advertisements
Track Severe Weather on mobile